Ash Fork, Arizona
Current Conditions -  °F | °C
As of 9:53 PM on Friday 28 Nov 2014 (Local Time) from KPRC Reporting Station
Clear Clear  
Wind Chill: 43°   Ceiling: Unl
Heat Index: 43°   Visibility: 10mi
Dew Point: 16°   Wind: 3mph
Humidity: 34%   Direction: 180°S
Pressure: 30.08"   Gusts: NA
Location:  35.23°N, 112.49°W
Report Text: KPRC 290453Z 18003KT 10SM CLR 06/M09 A3008 RMK AO2 SLP148 T00611089
Loading
Personal Weather Stations






























Interactive Weather Map New forecast layout! Learn more

10-Day Weather Forecast

Advertisements
Track Severe Weather on mobile